sensor_id;sensor_type;location;lat;lon;timestamp;pressure;altitude;pressure_sealevel;temperature;humidity
38054;BME280;23859;50.672;7.164;2023-05-12T00:02:10;47369.41;;;-140.95;84.22
38054;BME280;23859;50.672;7.164;2023-05-12T00:04:36;47349.28;;;-140.95;84.13
38054;BME280;23859;50.672;7.164;2023-05-12T00:07:05;47377.47;;;-140.95;84.09
38054;BME280;23859;50.672;7.164;2023-05-12T00:09:34;47349.28;;;-140.95;84.18
38054;BME280;23859;50.672;7.164;2023-05-12T00:12:01;47349.28;;;-140.95;84.03
38054;BME280;23859;50.672;7.164;2023-05-12T00:14:27;47357.34;;;-140.95;83.81
38054;BME280;23859;50.672;7.164;2023-05-12T00:16:53;47367.41;;;-140.95;83.80
38054;BME280;23859;50.672;7.164;2023-05-12T00:19:19;47373.44;;;-140.95;84.15
38054;BME280;23859;50.672;7.164;2023-05-12T00:21:46;47369.41;;;-140.95;84.29
38054;BME280;23859;50.672;7.164;2023-05-12T00:24:13;47895.41;;;-140.95;84.43
38054;BME280;23859;50.672;7.164;2023-05-12T00:26:39;47385.53;;;-140.95;84.46
38054;BME280;23859;50.672;7.164;2023-05-12T00:29:05;47381.50;;;-140.95;84.37
38054;BME280;23859;50.672;7.164;2023-05-12T00:31:31;47385.53;;;-140.95;84.65
38054;BME280;23859;50.672;7.164;2023-05-12T00:33:57;47373.44;;;-140.95;84.35
38054;BME280;23859;50.672;7.164;2023-05-12T00:36:23;47369.41;;;-140.95;84.25
38054;BME280;23859;50.672;7.164;2023-05-12T00:38:49;47361.34;;;-140.95;84.22
38054;BME280;23859;50.672;7.164;2023-05-12T00:41:15;47369.41;;;-140.95;84.04
38054;BME280;23859;50.672;7.164;2023-05-12T00:43:41;47363.38;;;-140.95;84.18
38054;BME280;23859;50.672;7.164;2023-05-12T00:46:08;47365.38;;;-140.95;83.99
38054;BME280;23859;50.672;7.164;2023-05-12T00:48:35;47375.47;;;-140.95;84.04
38054;BME280;23859;50.672;7.164;2023-05-12T00:51:02;47373.44;;;-140.95;84.09
38054;BME280;23859;50.672;7.164;2023-05-12T00:53:30;47383.53;;;-140.95;84.36
38054;BME280;23859;50.672;7.164;2023-05-12T00:55:56;47369.41;;;-140.95;84.18
38054;BME280;23859;50.672;7.164;2023-05-12T00:58:23;47373.44;;;-140.95;84.05
38054;BME280;23859;50.672;7.164;2023-05-12T01:00:49;47359.34;;;-140.95;83.73
38054;BME280;23859;50.672;7.164;2023-05-12T01:03:16;47365.38;;;-140.95;83.60
38054;BME280;23859;50.672;7.164;2023-05-12T01:05:51;47377.47;;;-140.95;83.82
38054;BME280;23859;50.672;7.164;2023-05-12T01:08:21;47397.63;;;-140.95;83.65
38054;BME280;23859;50.672;7.164;2023-05-12T01:10:48;47375.47;;;-140.95;83.76
38054;BME280;23859;50.672;7.164;2023-05-12T01:13:15;47377.47;;;-140.95;83.67
38054;BME280;23859;50.672;7.164;2023-05-12T01:15:45;47393.59;;;-140.95;83.50
38054;BME280;23859;50.672;7.164;2023-05-12T01:18:13;47369.41;;;-140.95;83.48
38054;BME280;23859;50.672;7.164;2023-05-12T01:20:41;47381.50;;;-140.95;83.34
38054;BME280;23859;50.672;7.164;2023-05-12T01:23:09;47383.53;;;-140.95;83.63
38054;BME280;23859;50.672;7.164;2023-05-12T01:25:36;47369.41;;;-140.95;84.01
38054;BME280;23859;50.672;7.164;2023-05-12T01:28:04;47377.47;;;-140.95;83.75
38054;BME280;23859;50.672;7.164;2023-05-12T01:30:31;47363.38;;;-140.95;83.69
38054;BME280;23859;50.672;7.164;2023-05-12T01:32:58;47379.50;;;-140.95;84.15
38054;BME280;23859;50.672;7.164;2023-05-12T01:35:24;47363.38;;;-140.95;84.05
38054;BME280;23859;50.672;7.164;2023-05-12T01:37:50;47385.53;;;-140.95;84.20
38054;BME280;23859;50.672;7.164;2023-05-12T01:40:17;47393.59;;;-140.95;84.14
38054;BME280;23859;50.672;7.164;2023-05-12T01:42:43;47377.47;;;-140.95;84.47
38054;BME280;23859;50.672;7.164;2023-05-12T01:45:09;47365.38;;;-140.95;84.52
38054;BME280;23859;50.672;7.164;2023-05-12T01:47:35;47385.53;;;-140.95;84.04
38054;BME280;23859;50.672;7.164;2023-05-12T01:50:01;47389.56;;;-140.95;84.31
38054;BME280;23859;50.672;7.164;2023-05-12T01:52:28;47401.66;;;-140.95;84.46
38054;BME280;23859;50.672;7.164;2023-05-12T01:54:54;47385.53;;;-140.95;84.50
38054;BME280;23859;50.672;7.164;2023-05-12T01:57:20;47387.56;;;-140.95;84.35
38054;BME280;23859;50.672;7.164;2023-05-12T01:59:46;47393.59;;;-140.95;84.40
38054;BME280;23859;50.672;7.164;2023-05-12T02:02:12;47399.66;;;-140.95;84.45
38054;BME280;23859;50.672;7.164;2023-05-12T02:04:38;47397.63;;;-140.95;84.72
38054;BME280;23859;50.672;7.164;2023-05-12T02:07:04;47397.63;;;-140.95;84.94
38054;BME280;23859;50.672;7.164;2023-05-12T02:09:30;47377.47;;;-140.95;85.15
38054;BME280;23859;50.672;7.164;2023-05-12T02:11:56;47371.44;;;-140.95;84.94
38054;BME280;23859;50.672;7.164;2023-05-12T02:14:22;47401.66;;;-140.95;84.88
38054;BME280;23859;50.672;7.164;2023-05-12T02:16:48;47381.50;;;-140.95;85.00
38054;BME280;23859;50.672;7.164;2023-05-12T02:19:18;47393.59;;;-140.95;85.05
38054;BME280;23859;50.672;7.164;2023-05-12T02:21:45;47391.59;;;-140.95;85.24
38054;BME280;23859;50.672;7.164;2023-05-12T02:24:11;47393.59;;;-140.95;85.31
38054;BME280;23859;50.672;7.164;2023-05-12T02:26:37;47385.53;;;-140.95;85.19
38054;BME280;23859;50.672;7.164;2023-05-12T02:29:03;47393.59;;;-140.95;84.79
38054;BME280;23859;50.672;7.164;2023-05-12T02:31:29;47381.50;;;-140.95;84.71
38054;BME280;23859;50.672;7.164;2023-05-12T02:33:55;47397.63;;;-140.95;85.01
38054;BME280;23859;50.672;7.164;2023-05-12T02:36:21;47389.56;;;-140.95;84.99
38054;BME280;23859;50.672;7.164;2023-05-12T02:38:48;47385.53;;;-140.95;84.77
38054;BME280;23859;50.672;7.164;2023-05-12T02:41:14;47389.56;;;-140.95;85.24
38054;BME280;23859;50.672;7.164;2023-05-12T02:43:40;47385.53;;;-140.95;85.28
38054;BME280;23859;50.672;7.164;2023-05-12T02:46:06;47397.63;;;-140.95;85.26
38054;BME280;23859;50.672;7.164;2023-05-12T02:48:32;47411.75;;;-140.95;85.14
38054;BME280;23859;50.672;7.164;2023-05-12T02:50:58;47397.63;;;-140.95;85.36
38054;BME280;23859;50.672;7.164;2023-05-12T02:53:24;47361.34;;;-140.95;85.22
38054;BME280;23859;50.672;7.164;2023-05-12T02:55:51;47389.56;;;-140.95;84.81
38054;BME280;23859;50.672;7.164;2023-05-12T02:58:17;47333.16;;;-140.95;84.82
38054;BME280;23859;50.672;7.164;2023-05-12T03:00:43;47405.69;;;-140.95;84.77
38054;BME280;23859;50.672;7.164;2023-05-12T03:03:09;47413.75;;;-140.95;84.98
38054;BME280;23859;50.672;7.164;2023-05-12T03:05:36;47393.59;;;-140.95;85.14
38054;BME280;23859;50.672;7.164;2023-05-12T03:08:02;47409.72;;;-140.95;85.14
38054;BME280;23859;50.672;7.164;2023-05-12T03:10:28;47393.59;;;-140.95;85.23
38054;BME280;23859;50.672;7.164;2023-05-12T03:12:54;47383.53;;;-140.95;85.34
38054;BME280;23859;50.672;7.164;2023-05-12T03:15:20;47395.63;;;-140.95;85.54
38054;BME280;23859;50.672;7.164;2023-05-12T03:17:46;47401.66;;;-140.95;85.47
38054;BME280;23859;50.672;7.164;2023-05-12T03:20:12;47399.66;;;-140.95;85.37
38054;BME280;23859;50.672;7.164;2023-05-12T03:22:38;47399.66;;;-140.95;85.73
38054;BME280;23859;50.672;7.164;2023-05-12T03:25:06;47407.72;;;-140.95;85.60
38054;BME280;23859;50.672;7.164;2023-05-12T03:27:33;47397.63;;;-140.95;85.93
38054;BME280;23859;50.672;7.164;2023-05-12T03:30:00;47389.56;;;-140.95;85.76
38054;BME280;23859;50.672;7.164;2023-05-12T03:32:26;47397.63;;;-140.95;85.93
38054;BME280;23859;50.672;7.164;2023-05-12T03:34:53;47401.66;;;-140.95;86.16
38054;BME280;23859;50.672;7.164;2023-05-12T03:37:19;47401.66;;;-140.95;86.15
38054;BME280;23859;50.672;7.164;2023-05-12T03:39:45;47407.72;;;-140.95;86.09
38054;BME280;23859;50.672;7.164;2023-05-12T03:42:13;47407.72;;;-140.95;85.95
38054;BME280;23859;50.672;7.164;2023-05-12T03:44:39;47399.66;;;-140.95;86.39
38054;BME280;23859;50.672;7.164;2023-05-12T03:47:05;47405.69;;;-140.95;86.49
38054;BME280;23859;50.672;7.164;2023-05-12T03:49:32;47413.75;;;-140.95;86.78
38054;BME280;23859;50.672;7.164;2023-05-12T03:51:58;47385.53;;;-140.95;86.66
38054;BME280;23859;50.672;7.164;2023-05-12T03:54:24;47409.72;;;-140.95;87.05
38054;BME280;23859;50.672;7.164;2023-05-12T03:56:51;47409.72;;;-140.95;87.10
38054;BME280;23859;50.672;7.164;2023-05-12T03:59:18;47405.69;;;-140.95;87.01
38054;BME280;23859;50.672;7.164;2023-05-12T04:01:44;47389.56;;;-140.95;86.87
38054;BME280;23859;50.672;7.164;2023-05-12T04:04:10;47405.69;;;-140.95;87.14
38054;BME280;23859;50.672;7.164;2023-05-12T04:06:36;47403.69;;;-140.95;87.27
38054;BME280;23859;50.672;7.164;2023-05-12T04:09:03;47397.63;;;-140.95;87.31
38054;BME280;23859;50.672;7.164;2023-05-12T04:11:29;47405.69;;;-140.95;87.24
38054;BME280;23859;50.672;7.164;2023-05-12T04:13:55;47397.63;;;-140.95;87.50
38054;BME280;23859;50.672;7.164;2023-05-12T04:16:22;47397.63;;;-140.95;87.27
38054;BME280;23859;50.672;7.164;2023-05-12T04:18:49;47409.72;;;-140.95;87.27
38054;BME280;23859;50.672;7.164;2023-05-12T04:21:15;47399.66;;;-140.95;87.34
38054;BME280;23859;50.672;7.164;2023-05-12T04:23:41;47401.66;;;-140.95;87.26
38054;BME280;23859;50.672;7.164;2023-05-12T04:26:07;47401.66;;;-140.95;87.30
38054;BME280;23859;50.672;7.164;2023-05-12T04:28:33;47429.88;;;-140.95;87.06
38054;BME280;23859;50.672;7.164;2023-05-12T04:31:02;47395.63;;;-140.95;87.33
38054;BME280;23859;50.672;7.164;2023-05-12T04:33:31;47391.59;;;-140.95;87.31
38054;BME280;23859;50.672;7.164;2023-05-12T04:35:58;47397.63;;;-140.95;87.33
38054;BME280;23859;50.672;7.164;2023-05-12T04:38:24;47395.63;;;-140.95;87.56
38054;BME280;23859;50.672;7.164;2023-05-12T04:40:50;47413.75;;;-140.95;87.44
38054;BME280;23859;50.672;7.164;2023-05-12T04:43:16;47403.69;;;-140.95;87.25
38054;BME280;23859;50.672;7.164;2023-05-12T04:45:42;47405.69;;;-140.95;87.25
38054;BME280;23859;50.672;7.164;2023-05-12T04:48:08;47401.66;;;-140.95;87.20
38054;BME280;23859;50.672;7.164;2023-05-12T04:50:35;47395.63;;;-140.95;87.46
38054;BME280;23859;50.672;7.164;2023-05-12T04:53:01;47391.59;;;-140.95;87.63
38054;BME280;23859;50.672;7.164;2023-05-12T04:55:27;47377.47;;;-140.95;87.38
38054;BME280;23859;50.672;7.164;2023-05-12T04:57:53;47399.66;;;-140.95;87.53
38054;BME280;23859;50.672;7.164;2023-05-12T05:00:19;47389.56;;;-140.95;87.41
38054;BME280;23859;50.672;7.164;2023-05-12T05:02:45;47381.50;;;-140.95;87.33
38054;BME280;23859;50.672;7.164;2023-05-12T05:05:12;47296.88;;;-140.95;87.12
38054;BME280;23859;50.672;7.164;2023-05-12T05:07:38;47389.56;;;-140.95;87.29
38054;BME280;23859;50.672;7.164;2023-05-12T05:10:04;47405.69;;;-140.95;87.12
38054;BME280;23859;50.672;7.164;2023-05-12T05:12:31;47399.66;;;-140.95;87.12
38054;BME280;23859;50.672;7.164;2023-05-12T05:14:57;47401.66;;;-140.95;87.29
38054;BME280;23859;50.672;7.164;2023-05-12T05:17:23;47409.72;;;-140.95;87.39
38054;BME280;23859;50.672;7.164;2023-05-12T05:19:49;47387.56;;;-140.95;87.61
38054;BME280;23859;50.672;7.164;2023-05-12T05:22:15;47409.72;;;-140.95;87.25
38054;BME280;23859;50.672;7.164;2023-05-12T05:24:41;47389.56;;;-140.95;87.14
38054;BME280;23859;50.672;7.164;2023-05-12T05:27:07;47401.66;;;-140.95;87.40
38054;BME280;23859;50.672;7.164;2023-05-12T05:29:33;47405.69;;;-140.95;87.08
38054;BME280;23859;50.672;7.164;2023-05-12T05:31:59;47389.56;;;-140.95;87.08
38054;BME280;23859;50.672;7.164;2023-05-12T05:34:25;47413.75;;;-140.95;87.01
38054;BME280;23859;50.672;7.164;2023-05-12T05:36:51;47389.56;;;-140.95;86.76
38054;BME280;23859;50.672;7.164;2023-05-12T05:39:17;47389.56;;;-140.95;86.58
38054;BME280;23859;50.672;7.164;2023-05-12T05:41:43;47381.50;;;-140.95;86.21
38054;BME280;23859;50.672;7.164;2023-05-12T05:44:09;47397.63;;;-140.95;86.49
38054;BME280;23859;50.672;7.164;2023-05-12T05:46:35;47401.66;;;-140.95;86.11
38054;BME280;23859;50.672;7.164;2023-05-12T05:49:02;47405.69;;;-140.95;86.28
38054;BME280;23859;50.672;7.164;2023-05-12T05:51:28;47397.63;;;-140.95;86.31
38054;BME280;23859;50.672;7.164;2023-05-12T05:53:54;47401.66;;;-140.95;86.64
38054;BME280;23859;50.672;7.164;2023-05-12T05:56:20;47397.63;;;-140.95;85.88
38054;BME280;23859;50.672;7.164;2023-05-12T05:58:47;47387.56;;;-140.95;85.79
38054;BME280;23859;50.672;7.164;2023-05-12T06:01:13;47403.69;;;-140.95;84.69
38054;BME280;23859;50.672;7.164;2023-05-12T06:03:40;47399.66;;;-140.95;85.36
38054;BME280;23859;50.672;7.164;2023-05-12T06:06:06;47391.59;;;-140.95;85.20
38054;BME280;23859;50.672;7.164;2023-05-12T06:08:32;47504.44;;;-140.95;85.32
38054;BME280;23859;50.672;7.164;2023-05-12T06:10:58;47319.03;;;-140.95;85.51
38054;BME280;23859;50.672;7.164;2023-05-12T06:13:24;47931.66;;;-140.95;85.82
38054;BME280;23859;50.672;7.164;2023-05-12T06:15:51;47397.63;;;-140.95;85.69
38054;BME280;23859;50.672;7.164;2023-05-12T06:18:17;47391.59;;;-140.95;84.85
38054;BME280;23859;50.672;7.164;2023-05-12T06:20:43;47375.47;;;-140.95;84.17
38054;BME280;23859;50.672;7.164;2023-05-12T06:23:09;47379.50;;;-140.95;84.05
38054;BME280;23859;50.672;7.164;2023-05-12T06:25:35;47381.50;;;-140.95;84.21
38054;BME280;23859;50.672;7.164;2023-05-12T06:28:01;47397.63;;;-140.95;84.32
38054;BME280;23859;50.672;7.164;2023-05-12T06:30:28;47385.53;;;-140.95;84.01
38054;BME280;23859;50.672;7.164;2023-05-12T06:32:54;47373.44;;;-140.95;83.52
38054;BME280;23859;50.672;7.164;2023-05-12T06:35:20;47385.53;;;-140.95;82.05
38054;BME280;23859;50.672;7.164;2023-05-12T06:37:46;47363.38;;;-140.95;83.88
38054;BME280;23859;50.672;7.164;2023-05-12T06:40:15;47357.34;;;-140.95;84.34
38054;BME280;23859;50.672;7.164;2023-05-12T06:42:42;47379.50;;;-140.95;83.39
38054;BME280;23859;50.672;7.164;2023-05-12T06:45:09;47359.34;;;-140.95;83.27
38054;BME280;23859;50.672;7.164;2023-05-12T06:47:37;47353.31;;;-140.95;83.31
38054;BME280;23859;50.672;7.164;2023-05-12T06:50:03;47343.22;;;-140.95;82.97
38054;BME280;23859;50.672;7.164;2023-05-12T06:52:29;47369.41;;;-140.95;82.67
38054;BME280;23859;50.672;7.164;2023-05-12T06:54:56;47353.31;;;-140.95;82.18
38054;BME280;23859;50.672;7.164;2023-05-12T06:57:22;47345.25;;;-140.95;82.52
38054;BME280;23859;50.672;7.164;2023-05-12T06:59:48;47343.22;;;-140.95;81.98
38054;BME280;23859;50.672;7.164;2023-05-12T07:02:14;47325.09;;;-140.95;80.72
38054;BME280;23859;50.672;7.164;2023-05-12T07:04:41;47349.28;;;-140.95;78.79
38054;BME280;23859;50.672;7.164;2023-05-12T07:07:07;47357.34;;;-140.95;78.75
38054;BME280;23859;50.672;7.164;2023-05-12T07:09:33;47321.06;;;-140.95;80.27
38054;BME280;23859;50.672;7.164;2023-05-12T07:11:59;47323.06;;;-140.95;80.01
38054;BME280;23859;50.672;7.164;2023-05-12T07:14:26;47327.09;;;-140.95;76.59
38054;BME280;23859;50.672;7.164;2023-05-12T07:16:52;47315.00;;;-140.95;77.51
38054;BME280;23859;50.672;7.164;2023-05-12T07:19:18;47280.75;;;-140.95;78.07
38054;BME280;23859;50.672;7.164;2023-05-12T07:21:44;47296.88;;;-140.95;76.32
38054;BME280;23859;50.672;7.164;2023-05-12T07:24:10;47280.75;;;-140.95;75.67
38054;BME280;23859;50.672;7.164;2023-05-12T07:26:36;47300.91;;;-140.95;73.55
38054;BME280;23859;50.672;7.164;2023-05-12T07:29:02;47300.91;;;-140.95;74.35
38054;BME280;23859;50.672;7.164;2023-05-12T07:31:30;47321.06;;;-140.95;74.62
38054;BME280;23859;50.672;7.164;2023-05-12T07:33:56;47304.94;;;-140.95;75.62
38054;BME280;23859;50.672;7.164;2023-05-12T07:36:22;47313.00;;;-140.95;74.74
38054;BME280;23859;50.672;7.164;2023-05-12T07:38:48;47288.81;;;-140.95;76.53
38054;BME280;23859;50.672;7.164;2023-05-12T07:41:14;47254.56;;;-140.95;72.22
38054;BME280;23859;50.672;7.164;2023-05-12T07:43:40;47252.53;;;-140.95;67.14
38054;BME280;23859;50.672;7.164;2023-05-12T07:46:06;47250.53;;;-140.95;69.67
38054;BME280;23859;50.672;7.164;2023-05-12T07:48:32;47258.59;;;-140.95;66.10
38054;BME280;23859;50.672;7.164;2023-05-12T07:51:04;47280.75;;;-140.95;67.80
38054;BME280;23859;50.672;7.164;2023-05-12T07:53:31;47276.72;;;-140.95;70.52
38054;BME280;23859;50.672;7.164;2023-05-12T07:55:57;47268.66;;;-140.95;72.44
38054;BME280;23859;50.672;7.164;2023-05-12T07:58:23;47266.66;;;-140.95;69.97
38054;BME280;23859;50.672;7.164;2023-05-12T08:00:50;47252.53;;;-140.95;70.45
38054;BME280;23859;50.672;7.164;2023-05-12T08:03:16;47732.16;;;-140.95;68.25
38054;BME280;23859;50.672;7.164;2023-05-12T08:05:42;47260.59;;;-140.95;67.54
38054;BME280;23859;50.672;7.164;2023-05-12T08:08:08;47248.50;;;-140.95;67.84
38054;BME280;23859;50.672;7.164;2023-05-12T08:10:41;47252.53;;;-140.95;67.29
38054;BME280;23859;50.672;7.164;2023-05-12T08:13:08;47264.63;;;-140.95;68.15
38054;BME280;23859;50.672;7.164;2023-05-12T08:15:34;47248.50;;;-140.95;65.56
38054;BME280;23859;50.672;7.164;2023-05-12T08:18:00;47232.41;;;-140.95;65.21
38054;BME280;23859;50.672;7.164;2023-05-12T08:20:26;47216.28;;;-140.95;62.33
38054;BME280;23859;50.672;7.164;2023-05-12T08:22:52;47196.13;;;-140.95;61.64
38054;BME280;23859;50.672;7.164;2023-05-12T08:25:18;47230.38;;;-140.95;62.29
38054;BME280;23859;50.672;7.164;2023-05-12T08:27:45;47214.25;;;-140.95;60.51
38054;BME280;23859;50.672;7.164;2023-05-12T08:30:11;47169.94;;;-140.95;60.04
38054;BME280;23859;50.672;7.164;2023-05-12T08:32:37;47165.91;;;-140.95;57.90
38054;BME280;23859;50.672;7.164;2023-05-12T08:35:04;47159.84;;;-140.95;56.33
38054;BME280;23859;50.672;7.164;2023-05-12T08:37:30;47153.81;;;-140.95;58.65
38054;BME280;23859;50.672;7.164;2023-05-12T08:39:57;47184.03;;;-140.95;58.60
38054;BME280;23859;50.672;7.164;2023-05-12T08:42:34;47192.09;;;-140.95;58.65
38054;BME280;23859;50.672;7.164;2023-05-12T08:45:02;47224.34;;;-140.95;59.97
38054;BME280;23859;50.672;7.164;2023-05-12T08:47:31;47236.44;;;-140.95;61.49
38054;BME280;23859;50.672;7.164;2023-05-12T08:50:02;47224.34;;;-140.95;62.02
38054;BME280;23859;50.672;7.164;2023-05-12T08:52:33;47222.31;;;-140.95;60.50
38054;BME280;23859;50.672;7.164;2023-05-12T08:54:59;47200.16;;;-140.95;61.58
38054;BME280;23859;50.672;7.164;2023-05-12T08:57:26;47200.16;;;-140.95;58.78
38054;BME280;23859;50.672;7.164;2023-05-12T08:59:53;47180.00;;;-140.95;57.24
38054;BME280;23859;50.672;7.164;2023-05-12T09:02:21;47200.16;;;-140.95;56.51
38054;BME280;23859;50.672;7.164;2023-05-12T09:04:50;47196.13;;;-140.95;57.91
38054;BME280;23859;50.672;7.164;2023-05-12T09:07:20;47202.16;;;-140.95;59.50
38054;BME280;23859;50.672;7.164;2023-05-12T09:09:57;47180.00;;;-140.95;59.14
38054;BME280;23859;50.672;7.164;2023-05-12T09:12:25;47190.09;;;-140.95;57.44
38054;BME280;23859;50.672;7.164;2023-05-12T09:15:04;47188.06;;;-140.95;56.63
38054;BME280;23859;50.672;7.164;2023-05-12T09:17:30;47188.06;;;-140.95;56.49
38054;BME280;23859;50.672;7.164;2023-05-12T09:19:56;47171.94;;;-140.95;56.21
38054;BME280;23859;50.672;7.164;2023-05-12T09:22:32;47175.97;;;-140.95;55.36
38054;BME280;23859;50.672;7.164;2023-05-12T09:25:00;47169.94;;;-140.95;54.77
38054;BME280;23859;50.672;7.164;2023-05-12T09:27:27;47186.06;;;-140.95;55.19
38054;BME280;23859;50.672;7.164;2023-05-12T09:29:53;47163.88;;;-140.95;54.05
38054;BME280;23859;50.672;7.164;2023-05-12T09:32:33;47169.94;;;-140.95;54.03
38054;BME280;23859;50.672;7.164;2023-05-12T09:35:04;47151.78;;;-140.95;52.24
38054;BME280;23859;50.672;7.164;2023-05-12T09:37:32;47151.78;;;-140.95;53.40
38054;BME280;23859;50.672;7.164;2023-05-12T09:40:05;47157.84;;;-140.95;52.34
38054;BME280;23859;50.672;7.164;2023-05-12T09:42:33;47163.88;;;-140.95;51.40
38054;BME280;23859;50.672;7.164;2023-05-12T09:45:03;47153.81;;;-140.95;54.46
38054;BME280;23859;50.672;7.164;2023-05-12T09:47:39;47129.63;;;-140.95;51.93
38054;BME280;23859;50.672;7.164;2023-05-12T09:50:07;47151.78;;;-140.95;51.45
38054;BME280;23859;50.672;7.164;2023-05-12T09:52:37;47139.72;;;-140.95;50.42
38054;BME280;23859;50.672;7.164;2023-05-12T09:55:08;47030.91;;;-140.95;49.34
38054;BME280;23859;50.672;7.164;2023-05-12T09:57:44;47131.66;;;-140.95;47.60
38054;BME280;23859;50.672;7.164;2023-05-12T10:00:13;47121.56;;;-140.95;48.55
38054;BME280;23859;50.672;7.164;2023-05-12T10:02:41;47103.44;;;-140.95;47.26
38054;BME280;23859;50.672;7.164;2023-05-12T10:05:14;47119.56;;;-140.95;46.96
38054;BME280;23859;50.672;7.164;2023-05-12T10:07:44;47103.44;;;-140.95;47.83
38054;BME280;23859;50.672;7.164;2023-05-12T10:10:15;47071.19;;;-140.95;47.00
38054;BME280;23859;50.672;7.164;2023-05-12T10:12:42;47079.25;;;-140.95;44.50
38054;BME280;23859;50.672;7.164;2023-05-12T10:15:10;47079.25;;;-140.95;42.85
38054;BME280;23859;50.672;7.164;2023-05-12T10:17:39;47101.41;;;-140.95;45.82
38054;BME280;23859;50.672;7.164;2023-05-12T10:20:09;47123.59;;;-140.95;46.27
38054;BME280;23859;50.672;7.164;2023-05-12T10:22:38;47101.41;;;-140.95;45.16
38054;BME280;23859;50.672;7.164;2023-05-12T10:25:06;47099.41;;;-140.95;45.57
38054;BME280;23859;50.672;7.164;2023-05-12T10:27:36;47101.41;;;-140.95;46.63
38054;BME280;23859;50.672;7.164;2023-05-12T10:30:02;47085.31;;;-140.95;45.02
38054;BME280;23859;50.672;7.164;2023-05-12T10:32:30;47081.28;;;-140.95;45.19
38054;BME280;23859;50.672;7.164;2023-05-12T10:35:07;47073.22;;;-140.95;44.85
38054;BME280;23859;50.672;7.164;2023-05-12T10:37:35;47095.38;;;-140.95;44.58
38054;BME280;23859;50.672;7.164;2023-05-12T10:40:02;47105.44;;;-140.95;44.18
38054;BME280;23859;50.672;7.164;2023-05-12T10:42:37;47099.41;;;-140.95;44.71
38054;BME280;23859;50.672;7.164;2023-05-12T10:45:14;47087.31;;;-140.95;45.59
38054;BME280;23859;50.672;7.164;2023-05-12T10:47:43;47083.28;;;-140.95;45.55
38054;BME280;23859;50.672;7.164;2023-05-12T10:50:09;47071.19;;;-140.95;42.91
38054;BME280;23859;50.672;7.164;2023-05-12T10:52:39;47085.31;;;-140.95;43.19
38054;BME280;23859;50.672;7.164;2023-05-12T10:55:11;47071.19;;;-140.95;43.08
38054;BME280;23859;50.672;7.164;2023-05-12T10:57:48;47099.41;;;-140.95;39.39
38054;BME280;23859;50.672;7.164;2023-05-12T11:00:15;47109.47;;;-140.95;40.58
38054;BME280;23859;50.672;7.164;2023-05-12T11:02:49;47091.34;;;-140.95;41.94
38054;BME280;23859;50.672;7.164;2023-05-12T11:05:15;47107.47;;;-140.95;41.21
38054;BME280;23859;50.672;7.164;2023-05-12T11:07:47;47125.59;;;-140.95;40.96
38054;BME280;23859;50.672;7.164;2023-05-12T11:10:14;47103.44;;;-140.95;42.60
38054;BME280;23859;50.672;7.164;2023-05-12T11:12:42;47109.47;;;-140.95;42.28
38054;BME280;23859;50.672;7.164;2023-05-12T11:15:08;47099.41;;;-140.95;42.57
38054;BME280;23859;50.672;7.164;2023-05-12T11:17:38;47097.41;;;-140.95;42.46
38054;BME280;23859;50.672;7.164;2023-05-12T11:20:06;47103.44;;;-140.95;42.76
38054;BME280;23859;50.672;7.164;2023-05-12T11:22:34;47103.44;;;-140.95;42.11
38054;BME280;23859;50.672;7.164;2023-05-12T11:25:09;47093.38;;;-140.95;42.23
38054;BME280;23859;50.672;7.164;2023-05-12T11:27:35;47087.31;;;-140.95;41.49
38054;BME280;23859;50.672;7.164;2023-05-12T11:30:07;47091.34;;;-140.95;40.65
38054;BME280;23859;50.672;7.164;2023-05-12T11:32:33;47089.34;;;-140.95;40.57
38054;BME280;23859;50.672;7.164;2023-05-12T11:35:13;47083.28;;;-140.95;41.51
38054;BME280;23859;50.672;7.164;2023-05-12T11:37:41;47089.34;;;-140.95;40.22
38054;BME280;23859;50.672;7.164;2023-05-12T11:40:20;47043.00;;;-140.95;41.89
38054;BME280;23859;50.672;7.164;2023-05-12T11:42:49;47099.41;;;-140.95;40.57
38054;BME280;23859;50.672;7.164;2023-05-12T11:45:20;47075.22;;;-140.95;42.43
38054;BME280;23859;50.672;7.164;2023-05-12T11:47:47;47067.16;;;-140.95;40.43
38054;BME280;23859;50.672;7.164;2023-05-12T11:50:20;47061.13;;;-140.95;39.10
38054;BME280;23859;50.672;7.164;2023-05-12T11:52:47;47047.03;;;-140.95;39.61
38054;BME280;23859;50.672;7.164;2023-05-12T11:55:22;47067.16;;;-140.95;39.90
38054;BME280;23859;50.672;7.164;2023-05-12T11:58:01;47071.19;;;-140.95;39.35
38054;BME280;23859;50.672;7.164;2023-05-12T12:00:34;47083.28;;;-140.95;40.65
38054;BME280;23859;50.672;7.164;2023-05-12T12:03:12;47071.19;;;-140.95;41.49
38054;BME280;23859;50.672;7.164;2023-05-12T12:05:40;47081.28;;;-140.95;41.99
38054;BME280;23859;50.672;7.164;2023-05-12T12:08:08;47059.09;;;-140.95;42.26
38054;BME280;23859;50.672;7.164;2023-05-12T12:10:34;47055.06;;;-140.95;40.96
38054;BME280;23859;50.672;7.164;2023-05-12T12:13:00;47063.13;;;-140.95;40.36
38054;BME280;23859;50.672;7.164;2023-05-12T12:15:28;47063.13;;;-140.95;39.54
38054;BME280;23859;50.672;7.164;2023-05-12T12:17:54;47049.03;;;-140.95;41.60
38054;BME280;23859;50.672;7.164;2023-05-12T12:20:20;47047.03;;;-140.95;39.39
38054;BME280;23859;50.672;7.164;2023-05-12T12:22:46;47043.00;;;-140.95;39.26
38054;BME280;23859;50.672;7.164;2023-05-12T12:25:13;47026.88;;;-140.95;37.64
38054;BME280;23859;50.672;7.164;2023-05-12T12:27:39;47018.81;;;-140.95;38.02
38054;BME280;23859;50.672;7.164;2023-05-12T12:30:05;47030.91;;;-140.95;38.91
38054;BME280;23859;50.672;7.164;2023-05-12T12:32:31;47043.00;;;-140.95;37.84
38054;BME280;23859;50.672;7.164;2023-05-12T12:34:57;47032.91;;;-140.95;41.05
38054;BME280;23859;50.672;7.164;2023-05-12T12:37:26;47047.03;;;-140.95;40.90
38054;BME280;23859;50.672;7.164;2023-05-12T12:39:52;47045.00;;;-140.95;40.96
38054;BME280;23859;50.672;7.164;2023-05-12T12:42:18;47047.03;;;-140.95;40.41